createdAt,value
2018-07-19T00:02:02.576Z,12.64
2018-07-19T00:04:33.704Z,12.63
2018-07-19T00:07:02.593Z,12.59
2018-07-19T00:09:31.816Z,12.56
2018-07-19T00:12:00.732Z,12.54
2018-07-19T00:14:29.620Z,12.59
2018-07-19T00:16:58.694Z,12.69
2018-07-19T00:19:27.643Z,12.63
2018-07-19T00:21:56.567Z,12.58
2018-07-19T00:24:25.575Z,12.51
2018-07-19T00:26:54.611Z,12.42
2018-07-19T00:29:23.590Z,12.42
2018-07-19T00:31:52.373Z,12.48
2018-07-19T00:34:21.313Z,12.54
2018-07-19T00:36:50.481Z,12.55
2018-07-19T00:39:19.075Z,12.50
2018-07-19T00:41:49.654Z,12.44
2018-07-19T00:44:18.219Z,12.36
2018-07-19T00:46:47.540Z,12.32
2018-07-19T00:49:16.710Z,12.23
2018-07-19T00:51:45.485Z,12.13
2018-07-19T00:54:14.889Z,12.08
2018-07-19T00:56:43.805Z,12.03
2018-07-19T00:59:12.762Z,11.99
2018-07-19T01:01:41.600Z,11.95
2018-07-19T01:04:10.518Z,11.95
2018-07-19T01:06:39.205Z,11.94
2018-07-19T01:09:10.317Z,11.92
2018-07-19T01:11:39.036Z,11.90
2018-07-19T01:14:07.900Z,11.89
2018-07-19T01:16:36.834Z,11.88
2018-07-19T01:19:05.483Z,11.86
2018-07-19T01:21:34.088Z,11.86
2018-07-19T01:24:02.931Z,11.85
2018-07-19T01:26:31.502Z,11.82
2018-07-19T01:29:00.083Z,11.80
2018-07-19T01:31:28.963Z,11.86
2018-07-19T01:33:57.874Z,11.93
2018-07-19T01:36:26.563Z,12.03
2018-07-19T01:38:55.159Z,12.10
2018-07-19T01:41:36.731Z,12.22
2018-07-19T01:44:05.359Z,12.31
2018-07-19T01:46:34.205Z,12.35
2018-07-19T01:49:03.044Z,12.23
2018-07-19T01:51:31.644Z,12.07
2018-07-19T01:54:00.430Z,11.92
2018-07-19T01:56:29.136Z,11.82
2018-07-19T01:58:57.736Z,11.74
2018-07-19T02:01:26.285Z,11.68
2018-07-19T02:03:55.053Z,11.63
2018-07-19T02:06:23.715Z,11.60
2018-07-19T02:08:52.339Z,11.63
2018-07-19T02:11:21.001Z,11.66
2018-07-19T02:13:49.867Z,11.68
2018-07-19T02:16:18.862Z,11.65
2018-07-19T02:18:47.642Z,11.56
2018-07-19T02:21:16.735Z,11.55
2018-07-19T02:23:45.305Z,11.55
2018-07-19T02:26:13.938Z,11.57
2018-07-19T02:28:42.588Z,11.58
2018-07-19T02:31:11.331Z,11.51
2018-07-19T02:33:43.589Z,11.43
2018-07-19T02:36:12.350Z,11.44
2018-07-19T02:38:40.959Z,11.46
2018-07-19T02:41:09.978Z,11.44
2018-07-19T02:43:40.705Z,11.43
2018-07-19T02:46:09.382Z,11.40
2018-07-19T02:48:38.162Z,11.33
2018-07-19T02:51:07.119Z,11.33
2018-07-19T02:53:36.133Z,11.27
2018-07-19T02:56:04.859Z,11.21
2018-07-19T02:58:33.801Z,11.17
2018-07-19T03:01:02.566Z,11.16
2018-07-19T03:03:34.651Z,11.10
2018-07-19T03:06:03.547Z,11.05
2018-07-19T03:08:32.483Z,10.98
2018-07-19T03:11:01.338Z,10.90
2018-07-19T03:13:30.103Z,10.87
2018-07-19T03:15:58.724Z,10.81
2018-07-19T03:18:27.519Z,10.74
2018-07-19T03:20:56.300Z,10.75
2018-07-19T03:23:25.110Z,10.83
2018-07-19T03:25:53.922Z,10.98
2018-07-19T03:28:22.805Z,11.05
2018-07-19T03:30:51.780Z,11.09
2018-07-19T03:33:20.571Z,11.09
2018-07-19T03:35:49.953Z,11.06
2018-07-19T03:38:18.767Z,11.05
2018-07-19T03:40:47.443Z,11.01
2018-07-19T03:43:16.228Z,10.93
2018-07-19T03:45:44.857Z,10.90
2018-07-19T03:48:13.530Z,10.93
2018-07-19T03:50:42.239Z,10.95
2018-07-19T03:53:10.821Z,10.98
2018-07-19T03:55:39.608Z,10.94
2018-07-19T03:58:08.364Z,10.93
2018-07-19T04:00:37.139Z,10.94
2018-07-19T04:03:05.880Z,10.99
2018-07-19T04:05:34.506Z,11.03
2018-07-19T04:08:03.115Z,11.10
2018-07-19T04:10:31.910Z,11.14
2018-07-19T04:13:00.573Z,11.19
2018-07-19T04:15:29.383Z,11.27
2018-07-19T04:17:58.898Z,11.43
2018-07-19T04:20:28.933Z,11.53
2018-07-19T04:22:57.856Z,11.62
2018-07-19T04:25:27.462Z,11.69
2018-07-19T04:27:57.167Z,11.77
2018-07-19T04:30:25.853Z,11.81
2018-07-19T04:32:54.740Z,11.89
2018-07-19T04:35:23.563Z,11.94
2018-07-19T04:37:52.244Z,11.98
2018-07-19T04:40:21.018Z,12.08
2018-07-19T04:42:49.793Z,12.19
2018-07-19T04:45:18.648Z,12.27
2018-07-19T04:47:47.437Z,12.35
2018-07-19T04:50:16.165Z,12.43
2018-07-19T04:52:45.472Z,12.50
2018-07-19T04:55:14.303Z,12.62
2018-07-19T04:57:42.951Z,12.73
2018-07-19T05:00:11.761Z,12.85
2018-07-19T05:02:40.432Z,12.99
2018-07-19T05:05:09.321Z,13.13
2018-07-19T05:07:38.117Z,13.26
2018-07-19T05:10:06.969Z,13.46
2018-07-19T05:12:36.602Z,13.70
2018-07-19T05:15:05.406Z,13.99
2018-07-19T05:17:34.421Z,14.42
2018-07-19T05:20:03.198Z,14.88
2018-07-19T05:22:31.885Z,15.32
2018-07-19T05:25:00.701Z,15.72
2018-07-19T05:27:29.491Z,16.11
2018-07-19T05:29:58.460Z,16.49
2018-07-19T05:32:27.218Z,16.85
2018-07-19T05:34:56.017Z,17.15
2018-07-19T05:37:24.724Z,17.36
2018-07-19T05:39:53.437Z,17.58
2018-07-19T05:42:22.188Z,17.83
2018-07-19T05:44:50.810Z,18.03
2018-07-19T05:47:19.444Z,18.22
2018-07-19T05:49:48.136Z,18.37
2018-07-19T05:52:16.858Z,18.53
2018-07-19T05:54:45.748Z,18.69
2018-07-19T05:57:14.509Z,18.85
2018-07-19T05:59:43.295Z,18.97
2018-07-19T06:02:12.080Z,19.02
2018-07-19T06:04:40.806Z,19.07
2018-07-19T06:07:09.583Z,19.16
2018-07-19T06:09:38.323Z,19.29
2018-07-19T06:12:07.122Z,19.46
2018-07-19T06:14:35.922Z,19.61
2018-07-19T06:17:04.641Z,19.69
2018-07-19T06:19:33.333Z,19.77
2018-07-19T06:22:02.111Z,19.87
2018-07-19T06:24:30.962Z,19.93
2018-07-19T06:26:59.705Z,20.09
2018-07-19T06:29:28.394Z,20.37
2018-07-19T06:31:57.134Z,20.70
2018-07-19T06:34:25.931Z,20.96
2018-07-19T06:36:54.743Z,21.07
2018-07-19T06:39:23.441Z,21.31
2018-07-19T06:41:52.143Z,21.56
2018-07-19T06:44:21.458Z,21.79
2018-07-19T06:46:50.362Z,22.03
2018-07-19T06:49:24.796Z,22.19
2018-07-19T06:51:53.584Z,22.33
2018-07-19T06:54:22.256Z,22.31
2018-07-19T06:56:51.116Z,22.28
2018-07-19T06:59:19.998Z,22.37
2018-07-19T07:01:48.778Z,22.57
2018-07-19T07:04:17.522Z,22.66
2018-07-19T07:06:46.395Z,22.83
2018-07-19T07:09:15.076Z,23.01
2018-07-19T07:11:43.726Z,23.30
2018-07-19T07:14:25.602Z,23.52
2018-07-19T07:16:54.299Z,23.66
2018-07-19T07:19:23.046Z,23.84
2018-07-19T07:21:51.819Z,24.07
2018-07-19T07:24:28.502Z,24.25
2018-07-19T07:26:57.140Z,24.37
2018-07-19T07:29:25.978Z,24.48
2018-07-19T07:31:54.708Z,24.57
2018-07-19T07:34:23.560Z,24.71
2018-07-19T07:36:52.365Z,24.94
2018-07-19T07:39:21.161Z,25.02
2018-07-19T07:41:49.835Z,25.14
2018-07-19T07:44:18.628Z,25.42
2018-07-19T07:46:47.318Z,25.68
2018-07-19T07:49:15.999Z,25.68
2018-07-19T07:51:44.741Z,25.70
2018-07-19T07:54:23.757Z,25.74
2018-07-19T07:56:52.477Z,25.81
2018-07-19T07:59:22.649Z,25.98
2018-07-19T08:01:51.328Z,26.31
2018-07-19T08:04:25.615Z,26.70
2018-07-19T08:06:54.972Z,26.95
2018-07-19T08:09:23.660Z,27.05
2018-07-19T08:11:52.812Z,27.06
2018-07-19T08:14:23.250Z,27.04
2018-07-19T08:16:52.272Z,26.99
2018-07-19T08:19:22.217Z,26.74
2018-07-19T08:21:52.271Z,26.76
2018-07-19T08:24:23.997Z,27.08
2018-07-19T08:26:56.562Z,27.46
2018-07-19T08:29:25.210Z,27.73
2018-07-19T08:31:54.832Z,27.93
2018-07-19T08:34:30.516Z,28.28
2018-07-19T08:36:59.149Z,28.60
2018-07-19T08:39:30.166Z,28.96
2018-07-19T08:41:59.775Z,29.16
2018-07-19T08:44:38.325Z,29.32
2018-07-19T08:47:07.135Z,29.26
2018-07-19T08:49:35.826Z,29.13
2018-07-19T08:52:04.540Z,29.05
2018-07-19T08:54:33.660Z,29.10
2018-07-19T08:57:02.563Z,29.07
2018-07-19T08:59:31.295Z,28.92
2018-07-19T09:02:00.321Z,28.75
2018-07-19T09:04:30.037Z,28.36
2018-07-19T09:06:58.704Z,28.04
2018-07-19T09:09:27.402Z,28.00
2018-07-19T09:11:56.474Z,28.12
2018-07-19T09:14:29.914Z,28.36
2018-07-19T09:16:58.674Z,28.65
2018-07-19T09:19:27.697Z,28.96
2018-07-19T09:21:57.837Z,29.33
2018-07-19T09:24:26.565Z,29.43
2018-07-19T09:26:55.310Z,29.33
2018-07-19T09:29:24.043Z,29.06
2018-07-19T09:31:52.779Z,28.78
2018-07-19T09:34:21.524Z,28.60
2018-07-19T09:36:52.809Z,28.38
2018-07-19T09:39:21.486Z,28.37
2018-07-19T09:41:50.200Z,28.41
2018-07-19T09:44:19.311Z,28.44
2018-07-19T09:47:16.389Z,28.21
2018-07-19T09:49:45.083Z,28.09
2018-07-19T09:52:13.870Z,28.31
2018-07-19T09:54:54.407Z,28.52
2018-07-19T09:57:23.108Z,28.41
2018-07-19T09:59:51.871Z,28.28
2018-07-19T10:02:20.602Z,28.29
2018-07-19T10:04:49.316Z,28.14
2018-07-19T10:07:18.222Z,28.02
2018-07-19T10:09:46.864Z,27.84
2018-07-19T10:12:15.714Z,27.67
2018-07-19T10:14:46.961Z,27.73
2018-07-19T10:17:21.412Z,27.55
2018-07-19T10:19:51.768Z,27.16
2018-07-19T10:22:20.539Z,27.13
2018-07-19T10:24:52.389Z,27.35
2018-07-19T10:27:22.890Z,27.52
2018-07-19T10:29:53.450Z,27.61
2018-07-19T10:32:25.165Z,27.69
2018-07-19T10:34:54.424Z,27.54
2018-07-19T10:37:33.205Z,27.48
2018-07-19T10:40:04.178Z,27.57
2018-07-19T10:42:33.490Z,27.72
2018-07-19T10:45:02.357Z,27.94
2018-07-19T10:47:32.159Z,28.09
2018-07-19T10:50:01.724Z,28.48
2018-07-19T10:52:31.578Z,28.65
2018-07-19T10:55:02.120Z,28.77
2018-07-19T10:57:35.160Z,29.15
2018-07-19T11:00:03.974Z,29.37
2018-07-19T11:02:32.923Z,29.44
2018-07-19T11:05:01.689Z,29.54
2018-07-19T11:07:38.614Z,29.54
2018-07-19T11:10:07.266Z,29.62
2018-07-19T11:12:36.016Z,29.68
2018-07-19T11:15:05.158Z,29.88
2018-07-19T11:17:52.520Z,29.97
2018-07-19T11:20:21.157Z,30.18
2018-07-19T11:22:49.823Z,30.39
2018-07-19T11:25:18.450Z,30.61
2018-07-19T11:27:54.601Z,30.93
2018-07-19T11:30:23.380Z,31.14
2018-07-19T11:32:52.289Z,31.21
2018-07-19T11:35:21.026Z,31.40
2018-07-19T11:37:57.045Z,31.75
2018-07-19T11:40:26.071Z,32.31
2018-07-19T11:42:54.816Z,32.74
2018-07-19T11:45:23.520Z,33.10
2018-07-19T11:47:53.296Z,33.18
2018-07-19T11:50:21.938Z,33.29
2018-07-19T11:52:50.696Z,33.50
2018-07-19T11:55:19.391Z,33.47
2018-07-19T11:57:50.233Z,33.67
2018-07-19T12:00:18.987Z,34.07
2018-07-19T12:02:47.658Z,34.45
2018-07-19T12:05:16.266Z,34.63
2018-07-19T12:07:45.058Z,34.59
2018-07-19T12:10:13.683Z,34.53
2018-07-19T12:12:42.313Z,34.40
2018-07-19T12:15:10.976Z,34.14
2018-07-19T12:17:44.162Z,34.10
2018-07-19T12:20:12.908Z,34.38
2018-07-19T12:22:41.652Z,34.11
2018-07-19T12:25:13.208Z,34.42
2018-07-19T12:27:50.305Z,34.44
2018-07-19T12:30:19.050Z,34.46
2018-07-19T12:32:47.732Z,34.20
2018-07-19T12:35:21.774Z,34.29
2018-07-19T12:37:54.224Z,34.33
2018-07-19T12:40:22.999Z,34.70
2018-07-19T12:43:10.865Z,35.21
2018-07-19T12:45:53.559Z,35.80
2018-07-19T12:48:36.569Z,36.59
2018-07-19T12:51:32.564Z,37.84
2018-07-19T12:54:13.233Z,39.70
2018-07-19T12:56:55.909Z,41.41
2018-07-19T12:59:42.057Z,42.66
2018-07-19T13:02:38.769Z,43.83
2018-07-19T13:05:29.792Z,42.79
2018-07-19T13:08:26.379Z,42.67
2018-07-19T13:11:12.198Z,40.36
2018-07-19T13:14:07.139Z,39.18
2018-07-19T13:16:53.922Z,38.97
2018-07-19T13:19:23.344Z,40.71
2018-07-19T13:21:57.278Z,42.69
2018-07-19T13:24:26.303Z,44.36
2018-07-19T13:26:55.010Z,45.62
2018-07-19T13:29:45.285Z,46.61
2018-07-19T13:32:14.066Z,44.76
2018-07-19T13:34:42.778Z,42.46
2018-07-19T13:37:11.506Z,39.83
2018-07-19T13:39:45.314Z,38.30
2018-07-19T13:42:14.044Z,37.20
2018-07-19T13:44:42.712Z,35.99
2018-07-19T13:47:11.485Z,36.25
2018-07-19T13:49:40.153Z,37.31
2018-07-19T13:52:08.900Z,39.36
2018-07-19T13:54:45.400Z,39.82
2018-07-19T13:57:14.127Z,41.74
2018-07-19T13:59:50.300Z,43.92
2018-07-19T14:02:19.090Z,45.77
2018-07-19T14:04:49.183Z,46.64
2018-07-19T14:07:17.929Z,47.79
2018-07-19T14:09:46.692Z,48.33
2018-07-19T14:12:15.353Z,47.08
2018-07-19T14:14:44.226Z,45.09
2018-07-19T14:17:12.948Z,44.78
2018-07-19T14:19:55.711Z,43.13
2018-07-19T14:22:24.715Z,40.87
2018-07-19T14:24:53.384Z,39.94
2018-07-19T14:27:22.076Z,40.12
2018-07-19T14:30:05.163Z,40.58
2018-07-19T14:32:33.885Z,40.24
2018-07-19T14:35:02.613Z,41.19
2018-07-19T14:37:31.287Z,42.79
2018-07-19T14:40:00.146Z,43.83
2018-07-19T14:42:28.855Z,44.38
2018-07-19T14:44:57.657Z,44.96
2018-07-19T14:47:26.336Z,45.83
2018-07-19T14:50:02.369Z,46.50
2018-07-19T14:52:31.149Z,46.83
2018-07-19T14:54:59.827Z,47.13
2018-07-19T14:57:28.520Z,44.87
2018-07-19T14:59:57.603Z,42.61
2018-07-19T15:02:26.305Z,42.54
2018-07-19T15:04:54.939Z,43.99
2018-07-19T15:07:23.793Z,45.37
2018-07-19T15:09:56.070Z,46.48
2018-07-19T15:12:24.782Z,47.55
2018-07-19T15:14:53.525Z,48.17
2018-07-19T15:17:22.180Z,47.70
2018-07-19T15:19:51.071Z,47.24
2018-07-19T15:22:19.738Z,44.98
2018-07-19T15:24:48.512Z,45.20
2018-07-19T15:27:17.410Z,45.78
2018-07-19T15:29:47.112Z,46.57
2018-07-19T15:32:15.896Z,46.77
2018-07-19T15:34:44.612Z,46.87
2018-07-19T15:37:13.302Z,46.88
2018-07-19T15:39:46.696Z,44.66
2018-07-19T15:42:15.440Z,41.82
2018-07-19T15:44:44.096Z,40.14
2018-07-19T15:47:12.900Z,39.99
2018-07-19T15:50:13.039Z,40.92
2018-07-19T15:52:41.630Z,42.81
2018-07-19T15:55:10.379Z,43.83
2018-07-19T15:57:39.010Z,43.58
2018-07-19T16:00:34.714Z,43.25
2018-07-19T16:03:03.362Z,42.63
2018-07-19T16:05:32.012Z,41.35
2018-07-19T16:08:00.710Z,41.33
2018-07-19T16:10:36.770Z,41.83
2018-07-19T16:13:05.515Z,42.02
2018-07-19T16:15:34.361Z,41.76
2018-07-19T16:18:03.050Z,41.86
2018-07-19T16:20:48.741Z,41.72
2018-07-19T16:23:17.740Z,41.08
2018-07-19T16:25:46.410Z,40.61
2018-07-19T16:28:15.028Z,39.75
2018-07-19T16:30:43.833Z,39.42
2018-07-19T16:33:12.485Z,39.50
2018-07-19T16:35:41.418Z,39.91
2018-07-19T16:38:10.240Z,39.46
2018-07-19T16:40:38.927Z,38.39
2018-07-19T16:43:07.674Z,37.67
2018-07-19T16:45:36.344Z,37.60
2018-07-19T16:48:05.391Z,37.59
2018-07-19T16:50:34.115Z,37.01
2018-07-19T16:53:02.857Z,36.59
2018-07-19T16:55:31.597Z,36.66
2018-07-19T16:58:00.473Z,36.96
2018-07-19T17:00:29.236Z,37.19
2018-07-19T17:02:58.020Z,37.54
2018-07-19T17:05:26.678Z,37.14
2018-07-19T17:07:55.730Z,36.42
2018-07-19T17:10:24.419Z,35.80
2018-07-19T17:12:53.163Z,35.21
2018-07-19T17:15:22.158Z,35.25
2018-07-19T17:17:50.976Z,35.41
2018-07-19T17:20:19.638Z,35.44
2018-07-19T17:22:48.298Z,35.17
2018-07-19T17:25:16.975Z,34.62
2018-07-19T17:27:45.712Z,34.20
2018-07-19T17:30:14.443Z,33.88
2018-07-19T17:32:43.210Z,33.56
2018-07-19T17:35:11.971Z,33.22
2018-07-19T17:37:40.690Z,32.90
2018-07-19T17:40:09.410Z,32.63
2018-07-19T17:42:38.152Z,32.34
2018-07-19T17:45:07.096Z,31.90
2018-07-19T17:47:35.805Z,31.33
2018-07-19T17:50:04.434Z,30.85
2018-07-19T17:52:33.044Z,30.40
2018-07-19T17:55:01.843Z,30.08
2018-07-19T17:57:31.479Z,29.81
2018-07-19T18:00:00.222Z,29.54
2018-07-19T18:02:29.005Z,29.34
2018-07-19T18:04:57.637Z,29.21
2018-07-19T18:07:26.346Z,29.03
2018-07-19T18:09:54.930Z,28.75
2018-07-19T18:12:23.614Z,28.40
2018-07-19T18:14:52.418Z,28.03
2018-07-19T18:17:21.118Z,27.76
2018-07-19T18:19:49.838Z,27.55
2018-07-19T18:22:18.588Z,27.39
2018-07-19T18:24:47.314Z,27.24
2018-07-19T18:27:16.058Z,27.05
2018-07-19T18:29:44.731Z,26.89
2018-07-19T18:32:13.504Z,26.76
2018-07-19T18:34:42.074Z,26.64
2018-07-19T18:37:10.848Z,26.33
2018-07-19T18:39:39.558Z,25.96
2018-07-19T18:42:08.736Z,25.56
2018-07-19T18:44:37.543Z,25.19
2018-07-19T18:47:06.287Z,24.85
2018-07-19T18:49:35.077Z,24.54
2018-07-19T18:52:03.811Z,24.18
2018-07-19T18:54:32.509Z,23.80
2018-07-19T18:57:01.244Z,23.44
2018-07-19T18:59:33.784Z,23.09
2018-07-19T19:02:02.544Z,22.78
2018-07-19T19:04:31.568Z,22.50
2018-07-19T19:07:00.304Z,22.23
2018-07-19T19:09:28.893Z,22.02
2018-07-19T19:11:57.604Z,21.81
2018-07-19T19:14:26.326Z,21.60
2018-07-19T19:16:55.146Z,21.42
2018-07-19T19:19:23.893Z,21.25
2018-07-19T19:21:52.623Z,21.09
2018-07-19T19:24:21.355Z,20.86
2018-07-19T19:26:49.970Z,20.67
2018-07-19T19:29:18.748Z,20.48
2018-07-19T19:31:47.493Z,20.25
2018-07-19T19:34:16.224Z,20.12
2018-07-19T19:36:44.954Z,20.03
2018-07-19T19:39:14.184Z,19.93
2018-07-19T19:41:43.374Z,19.86
2018-07-19T19:44:12.720Z,19.80
2018-07-19T19:46:41.432Z,19.70
2018-07-19T19:49:10.133Z,19.62
2018-07-19T19:51:38.739Z,19.54
2018-07-19T19:54:07.542Z,19.51
2018-07-19T19:56:36.330Z,19.47
2018-07-19T19:59:05.066Z,19.43
2018-07-19T20:01:33.839Z,19.35
2018-07-19T20:04:02.514Z,19.27
2018-07-19T20:06:31.158Z,19.22
2018-07-19T20:08:59.964Z,19.14
2018-07-19T20:11:28.734Z,19.14
2018-07-19T20:13:57.460Z,19.06
2018-07-19T20:16:26.177Z,18.91
2018-07-19T20:18:54.838Z,18.69
2018-07-19T20:21:23.447Z,18.46
2018-07-19T20:23:52.217Z,18.27
2018-07-19T20:26:20.830Z,18.14
2018-07-19T20:28:49.555Z,18.08
2018-07-19T20:31:19.263Z,17.95
2018-07-19T20:33:48.180Z,17.82
2018-07-19T20:36:16.903Z,17.70
2018-07-19T20:38:45.635Z,17.59
2018-07-19T20:41:14.318Z,17.59
2018-07-19T20:43:43.106Z,17.68
2018-07-19T20:46:11.807Z,17.74
2018-07-19T20:48:40.513Z,17.70
2018-07-19T20:51:09.185Z,17.62
2018-07-19T20:53:37.774Z,17.52
2018-07-19T20:56:06.432Z,17.45
2018-07-19T20:58:35.161Z,17.43
2018-07-19T21:01:03.862Z,17.52
2018-07-19T21:03:33.620Z,17.95
2018-07-19T21:06:02.332Z,18.59
2018-07-19T21:08:31.163Z,19.31
2018-07-19T21:10:59.887Z,19.90
2018-07-19T21:13:28.532Z,20.35
2018-07-19T21:15:57.176Z,20.58
2018-07-19T21:18:25.795Z,20.80
2018-07-19T21:20:54.524Z,20.93
2018-07-19T21:23:23.226Z,20.92
2018-07-19T21:25:51.979Z,20.92
2018-07-19T21:28:20.704Z,20.92
2018-07-19T21:30:51.501Z,20.84
2018-07-19T21:33:20.257Z,20.64
2018-07-19T21:35:49.160Z,20.50
2018-07-19T21:38:18.025Z,20.44
2018-07-19T21:40:46.725Z,20.39
2018-07-19T21:43:15.545Z,20.25
2018-07-19T21:45:44.584Z,20.03
2018-07-19T21:48:13.192Z,19.65
2018-07-19T21:50:42.651Z,19.11
2018-07-19T21:53:11.361Z,18.61
2018-07-19T21:55:40.264Z,18.18
2018-07-19T21:58:09.134Z,17.81
2018-07-19T22:00:43.157Z,17.49
2018-07-19T22:03:11.700Z,17.21
2018-07-19T22:05:40.592Z,17.00
2018-07-19T22:08:09.324Z,16.82
2018-07-19T22:10:38.044Z,16.85
2018-07-19T22:13:07.128Z,16.78
2018-07-19T22:15:35.877Z,16.66
2018-07-19T22:18:04.703Z,16.60
2018-07-19T22:20:33.485Z,16.53
2018-07-19T22:23:02.288Z,16.36
2018-07-19T22:25:31.028Z,16.17
2018-07-19T22:27:59.740Z,15.99
2018-07-19T22:30:28.543Z,15.88
2018-07-19T22:32:57.243Z,15.81
2018-07-19T22:35:25.988Z,15.69
2018-07-19T22:37:54.624Z,15.56
2018-07-19T22:40:23.496Z,15.46
2018-07-19T22:42:52.036Z,15.36
2018-07-19T22:45:20.783Z,15.39
2018-07-19T22:47:49.532Z,15.38
2018-07-19T22:50:22.304Z,15.34
2018-07-19T22:52:51.028Z,15.29
2018-07-19T22:55:19.572Z,15.30
2018-07-19T22:57:48.332Z,15.31
2018-07-19T23:00:17.099Z,15.30
2018-07-19T23:02:45.708Z,15.23
2018-07-19T23:05:14.464Z,15.11
2018-07-19T23:07:43.137Z,15.09
2018-07-19T23:10:11.835Z,15.10
2018-07-19T23:12:40.436Z,15.15
2018-07-19T23:15:09.108Z,15.11
2018-07-19T23:17:37.823Z,15.00
2018-07-19T23:20:07.466Z,14.94
2018-07-19T23:22:36.180Z,14.92
2018-07-19T23:25:04.914Z,14.88
2018-07-19T23:27:33.624Z,14.82
2018-07-19T23:30:02.362Z,14.76
2018-07-19T23:32:31.023Z,14.66
2018-07-19T23:34:59.828Z,14.62
2018-07-19T23:37:31.976Z,14.57
2018-07-19T23:40:04.023Z,14.58
2018-07-19T23:42:39.383Z,14.68
2018-07-19T23:46:16.819Z,14.85
2018-07-19T23:48:45.567Z,14.92
2018-07-19T23:51:14.264Z,14.81
2018-07-19T23:53:42.944Z,14.75
2018-07-19T23:56:11.719Z,14.67
2018-07-19T23:58:40.354Z,14.56
